sensor_id;sensor_type;location;lat;lon;timestamp;temperature;humidity
18091;DHT22;9172;49.948;9.208;2023-04-27T00:01:15;7.70;99.90
18091;DHT22;9172;49.948;9.208;2023-04-27T00:03:45;7.70;99.90
18091;DHT22;9172;49.948;9.208;2023-04-27T00:06:14;7.70;99.90
18091;DHT22;9172;49.948;9.208;2023-04-27T00:08:42;7.70;99.90
18091;DHT22;9172;49.948;9.208;2023-04-27T00:11:12;7.70;99.90
18091;DHT22;9172;49.948;9.208;2023-04-27T00:13:42;7.70;99.90
18091;DHT22;9172;49.948;9.208;2023-04-27T00:16:12;7.70;99.90
18091;DHT22;9172;49.948;9.208;2023-04-27T00:18:40;7.70;99.90
18091;DHT22;9172;49.948;9.208;2023-04-27T00:21:09;7.70;99.90
18091;DHT22;9172;49.948;9.208;2023-04-27T00:23:38;7.60;99.90
18091;DHT22;9172;49.948;9.208;2023-04-27T00:26:07;7.60;99.90
18091;DHT22;9172;49.948;9.208;2023-04-27T00:28:36;7.50;99.90
18091;DHT22;9172;49.948;9.208;2023-04-27T00:31:06;7.60;99.90
18091;DHT22;9172;49.948;9.208;2023-04-27T00:33:34;7.60;99.90
18091;DHT22;9172;49.948;9.208;2023-04-27T00:36:04;7.60;99.90
18091;DHT22;9172;49.948;9.208;2023-04-27T00:38:33;7.60;99.90
18091;DHT22;9172;49.948;9.208;2023-04-27T00:41:03;7.60;99.90
18091;DHT22;9172;49.948;9.208;2023-04-27T00:43:31;7.50;99.90
18091;DHT22;9172;49.948;9.208;2023-04-27T00:46:01;7.50;99.90
18091;DHT22;9172;49.948;9.208;2023-04-27T00:48:31;7.40;99.90
18091;DHT22;9172;49.948;9.208;2023-04-27T00:51:01;7.40;99.90
18091;DHT22;9172;49.948;9.208;2023-04-27T00:53:31;7.50;99.90
18091;DHT22;9172;49.948;9.208;2023-04-27T00:56:00;7.50;99.90
18091;DHT22;9172;49.948;9.208;2023-04-27T00:58:29;7.50;99.90
18091;DHT22;9172;49.948;9.208;2023-04-27T01:01:17;7.50;99.90
18091;DHT22;9172;49.948;9.208;2023-04-27T01:03:47;7.30;99.90
18091;DHT22;9172;49.948;9.208;2023-04-27T01:06:15;7.20;99.90
18091;DHT22;9172;49.948;9.208;2023-04-27T01:08:44;7.10;99.90
18091;DHT22;9172;49.948;9.208;2023-04-27T01:11:13;7.10;99.90
18091;DHT22;9172;49.948;9.208;2023-04-27T01:13:42;7.10;99.90
18091;DHT22;9172;49.948;9.208;2023-04-27T01:16:12;7.20;99.90
18091;DHT22;9172;49.948;9.208;2023-04-27T01:18:40;7.20;99.90
18091;DHT22;9172;49.948;9.208;2023-04-27T01:21:10;7.30;99.90
18091;DHT22;9172;49.948;9.208;2023-04-27T01:23:39;7.20;99.90
18091;DHT22;9172;49.948;9.208;2023-04-27T01:26:08;7.20;99.90
18091;DHT22;9172;49.948;9.208;2023-04-27T01:28:39;7.10;99.90
18091;DHT22;9172;49.948;9.208;2023-04-27T01:31:09;7.10;99.90
18091;DHT22;9172;49.948;9.208;2023-04-27T01:33:38;7.10;99.90
18091;DHT22;9172;49.948;9.208;2023-04-27T01:36:08;7.10;99.90
18091;DHT22;9172;49.948;9.208;2023-04-27T01:38:38;7.20;99.90
18091;DHT22;9172;49.948;9.208;2023-04-27T01:41:07;7.20;99.90
18091;DHT22;9172;49.948;9.208;2023-04-27T01:43:36;7.00;99.90
18091;DHT22;9172;49.948;9.208;2023-04-27T01:46:06;6.90;99.90
18091;DHT22;9172;49.948;9.208;2023-04-27T01:48:35;7.00;99.90
18091;DHT22;9172;49.948;9.208;2023-04-27T01:51:05;7.00;99.90
18091;DHT22;9172;49.948;9.208;2023-04-27T01:53:33;7.00;99.90
18091;DHT22;9172;49.948;9.208;2023-04-27T01:56:02;7.00;99.90
18091;DHT22;9172;49.948;9.208;2023-04-27T01:58:31;7.00;99.90
18091;DHT22;9172;49.948;9.208;2023-04-27T02:00:59;7.00;99.90
18091;DHT22;9172;49.948;9.208;2023-04-27T02:03:28;7.00;99.90
18091;DHT22;9172;49.948;9.208;2023-04-27T02:05:57;7.00;99.90
18091;DHT22;9172;49.948;9.208;2023-04-27T02:08:25;7.00;99.90
18091;DHT22;9172;49.948;9.208;2023-04-27T02:10:54;7.00;99.90
18091;DHT22;9172;49.948;9.208;2023-04-27T02:13:22;7.00;99.90
18091;DHT22;9172;49.948;9.208;2023-04-27T02:15:52;6.90;99.90
18091;DHT22;9172;49.948;9.208;2023-04-27T02:18:22;7.00;99.90
18091;DHT22;9172;49.948;9.208;2023-04-27T02:20:52;7.00;99.90
18091;DHT22;9172;49.948;9.208;2023-04-27T02:23:21;6.90;99.90
18091;DHT22;9172;49.948;9.208;2023-04-27T02:25:51;6.90;99.90
18091;DHT22;9172;49.948;9.208;2023-04-27T02:28:19;6.80;99.90
18091;DHT22;9172;49.948;9.208;2023-04-27T02:30:48;6.80;99.90
18091;DHT22;9172;49.948;9.208;2023-04-27T02:33:17;6.80;99.90
18091;DHT22;9172;49.948;9.208;2023-04-27T02:35:47;6.80;99.90
18091;DHT22;9172;49.948;9.208;2023-04-27T02:38:17;6.80;99.90
18091;DHT22;9172;49.948;9.208;2023-04-27T02:40:48;6.80;99.90
18091;DHT22;9172;49.948;9.208;2023-04-27T02:43:19;6.80;99.90
18091;DHT22;9172;49.948;9.208;2023-04-27T02:45:50;6.70;99.90
18091;DHT22;9172;49.948;9.208;2023-04-27T02:48:19;6.70;99.90
18091;DHT22;9172;49.948;9.208;2023-04-27T02:50:48;6.70;99.90
18091;DHT22;9172;49.948;9.208;2023-04-27T02:53:16;6.70;99.90
18091;DHT22;9172;49.948;9.208;2023-04-27T02:55:48;6.60;99.90
18091;DHT22;9172;49.948;9.208;2023-04-27T02:58:17;6.60;99.90
18091;DHT22;9172;49.948;9.208;2023-04-27T03:00:46;6.50;99.90
18091;DHT22;9172;49.948;9.208;2023-04-27T03:03:14;6.50;99.90
18091;DHT22;9172;49.948;9.208;2023-04-27T03:05:44;6.50;99.90
18091;DHT22;9172;49.948;9.208;2023-04-27T03:08:13;6.50;99.90
18091;DHT22;9172;49.948;9.208;2023-04-27T03:10:43;6.40;99.90
18091;DHT22;9172;49.948;9.208;2023-04-27T03:13:12;6.40;99.90
18091;DHT22;9172;49.948;9.208;2023-04-27T03:15:42;6.30;99.90
18091;DHT22;9172;49.948;9.208;2023-04-27T03:18:11;6.30;99.90
18091;DHT22;9172;49.948;9.208;2023-04-27T03:20:41;6.30;99.90
18091;DHT22;9172;49.948;9.208;2023-04-27T03:23:10;6.30;99.90
18091;DHT22;9172;49.948;9.208;2023-04-27T03:25:40;6.30;99.90
18091;DHT22;9172;49.948;9.208;2023-04-27T03:28:10;6.30;99.90
18091;DHT22;9172;49.948;9.208;2023-04-27T03:30:39;6.30;99.90
18091;DHT22;9172;49.948;9.208;2023-04-27T03:33:09;6.30;99.90
18091;DHT22;9172;49.948;9.208;2023-04-27T03:35:37;6.30;99.90
18091;DHT22;9172;49.948;9.208;2023-04-27T03:38:06;6.20;99.90
18091;DHT22;9172;49.948;9.208;2023-04-27T03:40:34;6.20;99.90
18091;DHT22;9172;49.948;9.208;2023-04-27T03:43:04;6.10;99.90
18091;DHT22;9172;49.948;9.208;2023-04-27T03:45:33;6.10;99.90
18091;DHT22;9172;49.948;9.208;2023-04-27T03:48:03;6.00;99.90
18091;DHT22;9172;49.948;9.208;2023-04-27T03:50:32;5.90;99.90
18091;DHT22;9172;49.948;9.208;2023-04-27T03:53:01;5.90;99.90
18091;DHT22;9172;49.948;9.208;2023-04-27T03:55:30;5.90;99.90
18091;DHT22;9172;49.948;9.208;2023-04-27T03:57:58;5.90;99.90
18091;DHT22;9172;49.948;9.208;2023-04-27T04:00:30;5.90;99.90
18091;DHT22;9172;49.948;9.208;2023-04-27T04:02:59;5.90;99.90
18091;DHT22;9172;49.948;9.208;2023-04-27T04:05:28;5.80;99.90
18091;DHT22;9172;49.948;9.208;2023-04-27T04:07:58;5.90;99.90
18091;DHT22;9172;49.948;9.208;2023-04-27T04:10:27;5.80;99.90
18091;DHT22;9172;49.948;9.208;2023-04-27T04:12:57;5.80;99.90
18091;DHT22;9172;49.948;9.208;2023-04-27T04:15:27;5.80;99.90
18091;DHT22;9172;49.948;9.208;2023-04-27T04:17:56;5.80;99.90
18091;DHT22;9172;49.948;9.208;2023-04-27T04:20:25;5.80;99.90
18091;DHT22;9172;49.948;9.208;2023-04-27T04:22:55;5.80;99.90
18091;DHT22;9172;49.948;9.208;2023-04-27T04:25:25;5.70;99.90
18091;DHT22;9172;49.948;9.208;2023-04-27T04:27:54;5.70;99.90
18091;DHT22;9172;49.948;9.208;2023-04-27T04:30:24;5.70;99.90
18091;DHT22;9172;49.948;9.208;2023-04-27T04:32:52;5.80;99.90
18091;DHT22;9172;49.948;9.208;2023-04-27T04:35:22;5.80;99.90
18091;DHT22;9172;49.948;9.208;2023-04-27T04:37:51;5.70;99.90
18091;DHT22;9172;49.948;9.208;2023-04-27T04:40:21;5.60;99.90
18091;DHT22;9172;49.948;9.208;2023-04-27T04:42:50;5.70;99.90
18091;DHT22;9172;49.948;9.208;2023-04-27T04:45:19;5.70;99.90
18091;DHT22;9172;49.948;9.208;2023-04-27T04:47:48;5.80;99.90
18091;DHT22;9172;49.948;9.208;2023-04-27T04:50:19;5.90;99.90
18091;DHT22;9172;49.948;9.208;2023-04-27T04:52:47;6.00;99.90
18091;DHT22;9172;49.948;9.208;2023-04-27T04:55:16;6.00;99.90
18091;DHT22;9172;49.948;9.208;2023-04-27T04:57:45;6.10;99.90
18091;DHT22;9172;49.948;9.208;2023-04-27T05:00:15;6.10;99.90
18091;DHT22;9172;49.948;9.208;2023-04-27T05:02:45;6.10;99.90
18091;DHT22;9172;49.948;9.208;2023-04-27T05:05:14;5.90;99.90
18091;DHT22;9172;49.948;9.208;2023-04-27T05:07:43;5.90;99.90
18091;DHT22;9172;49.948;9.208;2023-04-27T05:10:12;6.00;99.90
18091;DHT22;9172;49.948;9.208;2023-04-27T05:12:40;6.10;99.90
18091;DHT22;9172;49.948;9.208;2023-04-27T05:15:11;6.10;99.90
18091;DHT22;9172;49.948;9.208;2023-04-27T05:17:40;6.20;99.90
18091;DHT22;9172;49.948;9.208;2023-04-27T05:20:10;6.20;99.90
18091;DHT22;9172;49.948;9.208;2023-04-27T05:22:38;6.30;99.90
18091;DHT22;9172;49.948;9.208;2023-04-27T05:25:08;6.30;99.90
18091;DHT22;9172;49.948;9.208;2023-04-27T05:27:37;6.40;99.90
18091;DHT22;9172;49.948;9.208;2023-04-27T05:30:09;6.40;99.90
18091;DHT22;9172;49.948;9.208;2023-04-27T05:32:38;6.50;99.90
18091;DHT22;9172;49.948;9.208;2023-04-27T05:35:08;6.60;99.90
18091;DHT22;9172;49.948;9.208;2023-04-27T05:37:37;6.60;99.90
18091;DHT22;9172;49.948;9.208;2023-04-27T05:40:07;6.70;99.90
18091;DHT22;9172;49.948;9.208;2023-04-27T05:42:36;6.70;99.90
18091;DHT22;9172;49.948;9.208;2023-04-27T05:45:07;6.80;99.90
18091;DHT22;9172;49.948;9.208;2023-04-27T05:50:15;6.80;99.90
18091;DHT22;9172;49.948;9.208;2023-04-27T05:52:44;6.80;99.90
18091;DHT22;9172;49.948;9.208;2023-04-27T05:55:14;6.90;99.90
18091;DHT22;9172;49.948;9.208;2023-04-27T05:57:43;6.90;99.90
18091;DHT22;9172;49.948;9.208;2023-04-27T06:00:15;6.90;99.90
18091;DHT22;9172;49.948;9.208;2023-04-27T06:02:43;7.00;99.90
18091;DHT22;9172;49.948;9.208;2023-04-27T06:05:13;7.10;99.90
18091;DHT22;9172;49.948;9.208;2023-04-27T06:10:19;7.20;99.90
18091;DHT22;9172;49.948;9.208;2023-04-27T06:12:48;7.30;99.90
18091;DHT22;9172;49.948;9.208;2023-04-27T06:15:19;7.40;99.90
18091;DHT22;9172;49.948;9.208;2023-04-27T06:17:48;7.50;99.90
18091;DHT22;9172;49.948;9.208;2023-04-27T06:20:17;7.50;99.90
18091;DHT22;9172;49.948;9.208;2023-04-27T06:22:46;7.50;99.90
18091;DHT22;9172;49.948;9.208;2023-04-27T06:25:14;7.60;99.90
18091;DHT22;9172;49.948;9.208;2023-04-27T06:27:44;7.70;99.90
18091;DHT22;9172;49.948;9.208;2023-04-27T06:30:14;7.80;99.90
18091;DHT22;9172;49.948;9.208;2023-04-27T06:32:49;7.90;99.90
18091;DHT22;9172;49.948;9.208;2023-04-27T06:35:19;7.90;99.90
18091;DHT22;9172;49.948;9.208;2023-04-27T06:37:48;8.00;99.90
18091;DHT22;9172;49.948;9.208;2023-04-27T06:40:16;8.00;99.90
18091;DHT22;9172;49.948;9.208;2023-04-27T06:42:46;8.00;99.90
18091;DHT22;9172;49.948;9.208;2023-04-27T06:45:14;8.10;99.90
18091;DHT22;9172;49.948;9.208;2023-04-27T06:47:44;8.20;99.90
18091;DHT22;9172;49.948;9.208;2023-04-27T06:50:13;8.30;99.90
18091;DHT22;9172;49.948;9.208;2023-04-27T06:52:43;8.30;99.90
18091;DHT22;9172;49.948;9.208;2023-04-27T06:55:12;8.40;99.90
18091;DHT22;9172;49.948;9.208;2023-04-27T06:57:41;8.50;99.90
18091;DHT22;9172;49.948;9.208;2023-04-27T07:00:12;8.50;99.90
18091;DHT22;9172;49.948;9.208;2023-04-27T07:02:41;8.60;99.90
18091;DHT22;9172;49.948;9.208;2023-04-27T07:05:12;8.80;99.90
18091;DHT22;9172;49.948;9.208;2023-04-27T07:07:41;9.10;99.90
18091;DHT22;9172;49.948;9.208;2023-04-27T07:10:10;9.30;99.90
18091;DHT22;9172;49.948;9.208;2023-04-27T07:12:40;9.50;99.90
18091;DHT22;9172;49.948;9.208;2023-04-27T07:15:09;9.70;99.90
18091;DHT22;9172;49.948;9.208;2023-04-27T07:17:40;9.80;99.90
18091;DHT22;9172;49.948;9.208;2023-04-27T07:20:09;10.00;99.90
18091;DHT22;9172;49.948;9.208;2023-04-27T07:22:39;10.10;99.90
18091;DHT22;9172;49.948;9.208;2023-04-27T07:25:10;10.30;99.90
18091;DHT22;9172;49.948;9.208;2023-04-27T07:27:38;10.30;99.90
18091;DHT22;9172;49.948;9.208;2023-04-27T07:30:10;10.30;99.90
18091;DHT22;9172;49.948;9.208;2023-04-27T07:32:41;10.30;99.90
18091;DHT22;9172;49.948;9.208;2023-04-27T07:35:17;10.30;99.90
18091;DHT22;9172;49.948;9.208;2023-04-27T07:37:49;10.30;99.90
18091;DHT22;9172;49.948;9.208;2023-04-27T07:40:18;10.30;99.90
18091;DHT22;9172;49.948;9.208;2023-04-27T07:42:49;10.40;99.90
18091;DHT22;9172;49.948;9.208;2023-04-27T07:45:19;10.50;99.90
18091;DHT22;9172;49.948;9.208;2023-04-27T07:47:49;10.70;99.90
18091;DHT22;9172;49.948;9.208;2023-04-27T07:50:22;10.80;99.90
18091;DHT22;9172;49.948;9.208;2023-04-27T07:52:53;10.90;99.90
18091;DHT22;9172;49.948;9.208;2023-04-27T07:55:23;10.90;99.90
18091;DHT22;9172;49.948;9.208;2023-04-27T07:57:53;11.00;99.90
18091;DHT22;9172;49.948;9.208;2023-04-27T08:00:23;11.10;99.90
18091;DHT22;9172;49.948;9.208;2023-04-27T08:02:53;11.10;99.90
18091;DHT22;9172;49.948;9.208;2023-04-27T08:05:22;11.20;99.90
18091;DHT22;9172;49.948;9.208;2023-04-27T08:07:52;11.20;99.90
18091;DHT22;9172;49.948;9.208;2023-04-27T08:10:21;11.20;99.90
18091;DHT22;9172;49.948;9.208;2023-04-27T08:12:55;11.30;99.90
18091;DHT22;9172;49.948;9.208;2023-04-27T08:15:24;11.40;99.90
18091;DHT22;9172;49.948;9.208;2023-04-27T08:17:53;11.50;99.90
18091;DHT22;9172;49.948;9.208;2023-04-27T08:20:23;11.60;99.90
18091;DHT22;9172;49.948;9.208;2023-04-27T08:22:53;11.60;99.90
18091;DHT22;9172;49.948;9.208;2023-04-27T08:25:23;11.70;99.90
18091;DHT22;9172;49.948;9.208;2023-04-27T08:27:52;11.90;99.90
18091;DHT22;9172;49.948;9.208;2023-04-27T08:30:20;12.00;99.90
18091;DHT22;9172;49.948;9.208;2023-04-27T08:32:50;12.00;99.90
18091;DHT22;9172;49.948;9.208;2023-04-27T08:35:22;12.10;99.90
18091;DHT22;9172;49.948;9.208;2023-04-27T08:37:53;12.10;99.90
18091;DHT22;9172;49.948;9.208;2023-04-27T08:40:24;12.20;99.90
18091;DHT22;9172;49.948;9.208;2023-04-27T08:42:56;12.40;99.90
18091;DHT22;9172;49.948;9.208;2023-04-27T08:45:26;12.40;99.70
18091;DHT22;9172;49.948;9.208;2023-04-27T08:47:55;12.50;99.80
18091;DHT22;9172;49.948;9.208;2023-04-27T08:50:27;12.60;99.10
18091;DHT22;9172;49.948;9.208;2023-04-27T08:52:58;12.60;99.20
18091;DHT22;9172;49.948;9.208;2023-04-27T08:55:27;12.60;99.30
18091;DHT22;9172;49.948;9.208;2023-04-27T08:57:57;12.60;99.90
18091;DHT22;9172;49.948;9.208;2023-04-27T09:00:36;12.70;99.40
18091;DHT22;9172;49.948;9.208;2023-04-27T09:03:00;12.80;98.80
18091;DHT22;9172;49.948;9.208;2023-04-27T09:05:30;12.90;98.20
18091;DHT22;9172;49.948;9.208;2023-04-27T09:08:06;12.90;98.50
18091;DHT22;9172;49.948;9.208;2023-04-27T09:10:47;12.80;98.10
18091;DHT22;9172;49.948;9.208;2023-04-27T09:13:17;12.90;98.40
18091;DHT22;9172;49.948;9.208;2023-04-27T09:15:47;13.00;98.60
18091;DHT22;9172;49.948;9.208;2023-04-27T09:18:17;13.20;98.50
18091;DHT22;9172;49.948;9.208;2023-04-27T09:20:48;13.30;98.60
18091;DHT22;9172;49.948;9.208;2023-04-27T09:23:30;13.40;98.70
18091;DHT22;9172;49.948;9.208;2023-04-27T09:26:05;13.40;98.40
18091;DHT22;9172;49.948;9.208;2023-04-27T09:28:37;13.40;98.30
18091;DHT22;9172;49.948;9.208;2023-04-27T09:31:06;13.40;97.20
18091;DHT22;9172;49.948;9.208;2023-04-27T09:33:36;13.50;98.20
18091;DHT22;9172;49.948;9.208;2023-04-27T09:36:06;13.60;98.50
18091;DHT22;9172;49.948;9.208;2023-04-27T09:38:39;13.70;98.00
18091;DHT22;9172;49.948;9.208;2023-04-27T09:41:08;13.80;97.90
18091;DHT22;9172;49.948;9.208;2023-04-27T09:43:39;13.90;97.60
18091;DHT22;9172;49.948;9.208;2023-04-27T09:46:12;14.00;96.70
18091;DHT22;9172;49.948;9.208;2023-04-27T09:48:41;14.10;97.10
18091;DHT22;9172;49.948;9.208;2023-04-27T09:51:09;14.20;96.80
18091;DHT22;9172;49.948;9.208;2023-04-27T09:53:43;14.40;97.20
18091;DHT22;9172;49.948;9.208;2023-04-27T09:56:22;14.00;96.10
18091;DHT22;9172;49.948;9.208;2023-04-27T10:01:58;13.50;96.40
18091;DHT22;9172;49.948;9.208;2023-04-27T10:04:48;13.70;97.90
18091;DHT22;9172;49.948;9.208;2023-04-27T10:07:11;13.90;97.70
18091;DHT22;9172;49.948;9.208;2023-04-27T10:09:45;14.10;96.50
18091;DHT22;9172;49.948;9.208;2023-04-27T10:12:16;14.20;97.30
18091;DHT22;9172;49.948;9.208;2023-04-27T10:14:50;14.20;97.20
18091;DHT22;9172;49.948;9.208;2023-04-27T10:17:22;14.20;97.00
18091;DHT22;9172;49.948;9.208;2023-04-27T10:19:57;14.10;97.10
18091;DHT22;9172;49.948;9.208;2023-04-27T10:22:38;14.20;96.80
18091;DHT22;9172;49.948;9.208;2023-04-27T10:25:16;14.10;97.00
18091;DHT22;9172;49.948;9.208;2023-04-27T10:27:49;14.10;96.50
18091;DHT22;9172;49.948;9.208;2023-04-27T10:30:21;14.20;97.30
18091;DHT22;9172;49.948;9.208;2023-04-27T10:32:52;14.30;96.80
18091;DHT22;9172;49.948;9.208;2023-04-27T10:35:31;14.40;96.60
18091;DHT22;9172;49.948;9.208;2023-04-27T10:38:06;14.40;96.40
18091;DHT22;9172;49.948;9.208;2023-04-27T10:40:36;14.30;95.30
18091;DHT22;9172;49.948;9.208;2023-04-27T10:43:10;14.40;96.00
18091;DHT22;9172;49.948;9.208;2023-04-27T10:45:40;14.40;96.20
18091;DHT22;9172;49.948;9.208;2023-04-27T10:48:11;14.60;97.00
18091;DHT22;9172;49.948;9.208;2023-04-27T10:50:41;14.70;96.80
18091;DHT22;9172;49.948;9.208;2023-04-27T10:53:13;14.70;96.10
18091;DHT22;9172;49.948;9.208;2023-04-27T10:55:43;14.80;96.40
18091;DHT22;9172;49.948;9.208;2023-04-27T10:58:15;14.90;95.90
18091;DHT22;9172;49.948;9.208;2023-04-27T11:00:47;14.90;95.80
18091;DHT22;9172;49.948;9.208;2023-04-27T11:03:16;15.00;96.30
18091;DHT22;9172;49.948;9.208;2023-04-27T11:05:47;15.00;94.90
18091;DHT22;9172;49.948;9.208;2023-04-27T11:08:18;14.90;94.20
18091;DHT22;9172;49.948;9.208;2023-04-27T11:10:48;14.90;94.00
18091;DHT22;9172;49.948;9.208;2023-04-27T11:13:19;15.00;95.40
18091;DHT22;9172;49.948;9.208;2023-04-27T11:15:49;15.10;94.70
18091;DHT22;9172;49.948;9.208;2023-04-27T11:18:22;15.00;93.60
18091;DHT22;9172;49.948;9.208;2023-04-27T11:20:52;15.00;94.60
18091;DHT22;9172;49.948;9.208;2023-04-27T11:23:25;15.00;94.30
18091;DHT22;9172;49.948;9.208;2023-04-27T11:25:55;14.90;94.50
18091;DHT22;9172;49.948;9.208;2023-04-27T11:28:24;15.10;95.20
18091;DHT22;9172;49.948;9.208;2023-04-27T11:30:56;15.40;96.00
18091;DHT22;9172;49.948;9.208;2023-04-27T11:33:25;15.60;94.90
18091;DHT22;9172;49.948;9.208;2023-04-27T11:35:54;15.80;94.40
18091;DHT22;9172;49.948;9.208;2023-04-27T11:38:24;16.00;94.80
18091;DHT22;9172;49.948;9.208;2023-04-27T11:41:01;16.10;94.20
18091;DHT22;9172;49.948;9.208;2023-04-27T11:43:31;16.30;93.90
18091;DHT22;9172;49.948;9.208;2023-04-27T11:46:03;16.40;93.80
18091;DHT22;9172;49.948;9.208;2023-04-27T11:48:34;16.40;93.20
18091;DHT22;9172;49.948;9.208;2023-04-27T11:51:03;16.50;92.90
18091;DHT22;9172;49.948;9.208;2023-04-27T11:53:33;16.60;93.00
18091;DHT22;9172;49.948;9.208;2023-04-27T11:56:03;16.60;92.70
18091;DHT22;9172;49.948;9.208;2023-04-27T11:58:34;16.50;93.20
18091;DHT22;9172;49.948;9.208;2023-04-27T12:01:03;16.50;92.10
18091;DHT22;9172;49.948;9.208;2023-04-27T12:03:33;16.40;91.70
18091;DHT22;9172;49.948;9.208;2023-04-27T12:06:02;16.40;92.60
18091;DHT22;9172;49.948;9.208;2023-04-27T12:08:33;16.40;93.20
18091;DHT22;9172;49.948;9.208;2023-04-27T12:11:01;16.40;91.60
18091;DHT22;9172;49.948;9.208;2023-04-27T12:13:32;16.30;92.40
18091;DHT22;9172;49.948;9.208;2023-04-27T12:16:01;16.40;92.50
18091;DHT22;9172;49.948;9.208;2023-04-27T12:18:30;16.40;92.50
18091;DHT22;9172;49.948;9.208;2023-04-27T12:20:58;16.20;91.90
18091;DHT22;9172;49.948;9.208;2023-04-27T12:23:27;16.10;91.80
18091;DHT22;9172;49.948;9.208;2023-04-27T12:25:55;16.20;92.60
18091;DHT22;9172;49.948;9.208;2023-04-27T12:28:25;16.30;92.60
18091;DHT22;9172;49.948;9.208;2023-04-27T12:30:53;16.60;92.70
18091;DHT22;9172;49.948;9.208;2023-04-27T12:33:22;16.60;93.70
18091;DHT22;9172;49.948;9.208;2023-04-27T12:35:51;16.70;91.50
18091;DHT22;9172;49.948;9.208;2023-04-27T12:38:20;16.40;92.10
18091;DHT22;9172;49.948;9.208;2023-04-27T12:40:49;16.40;92.70
18091;DHT22;9172;49.948;9.208;2023-04-27T12:43:18;16.50;92.20
18091;DHT22;9172;49.948;9.208;2023-04-27T12:45:47;16.50;92.60
18091;DHT22;9172;49.948;9.208;2023-04-27T12:48:18;16.60;92.90
18091;DHT22;9172;49.948;9.208;2023-04-27T12:50:47;16.60;93.50
18091;DHT22;9172;49.948;9.208;2023-04-27T12:53:16;16.60;92.60
18091;DHT22;9172;49.948;9.208;2023-04-27T12:55:48;16.60;92.30
18091;DHT22;9172;49.948;9.208;2023-04-27T12:58:17;16.60;91.90
18091;DHT22;9172;49.948;9.208;2023-04-27T13:03:22;16.40;92.40
18091;DHT22;9172;49.948;9.208;2023-04-27T13:05:55;16.20;91.40
18091;DHT22;9172;49.948;9.208;2023-04-27T13:08:24;16.20;92.50
18091;DHT22;9172;49.948;9.208;2023-04-27T13:10:54;16.30;92.60
18091;DHT22;9172;49.948;9.208;2023-04-27T13:13:24;16.50;93.30
18091;DHT22;9172;49.948;9.208;2023-04-27T13:16:12;16.70;94.30
18091;DHT22;9172;49.948;9.208;2023-04-27T13:18:42;16.80;93.80
18091;DHT22;9172;49.948;9.208;2023-04-27T13:21:17;16.60;91.70
18091;DHT22;9172;49.948;9.208;2023-04-27T13:23:46;16.50;92.80
18091;DHT22;9172;49.948;9.208;2023-04-27T13:26:15;16.50;92.80
18091;DHT22;9172;49.948;9.208;2023-04-27T13:28:45;16.50;93.50
18091;DHT22;9172;49.948;9.208;2023-04-27T13:31:14;16.50;92.80
18091;DHT22;9172;49.948;9.208;2023-04-27T13:33:43;16.60;92.60
18091;DHT22;9172;49.948;9.208;2023-04-27T13:36:13;16.50;92.30
18091;DHT22;9172;49.948;9.208;2023-04-27T13:38:43;16.50;93.10
18091;DHT22;9172;49.948;9.208;2023-04-27T13:41:12;16.50;93.40
18091;DHT22;9172;49.948;9.208;2023-04-27T13:43:40;16.60;93.50
18091;DHT22;9172;49.948;9.208;2023-04-27T13:46:12;16.70;93.50
18091;DHT22;9172;49.948;9.208;2023-04-27T13:48:42;16.80;93.10
18091;DHT22;9172;49.948;9.208;2023-04-27T13:51:12;16.80;92.50
18091;DHT22;9172;49.948;9.208;2023-04-27T13:53:40;16.80;93.00
18091;DHT22;9172;49.948;9.208;2023-04-27T13:56:09;16.80;93.20
18091;DHT22;9172;49.948;9.208;2023-04-27T13:58:38;16.90;93.70
18091;DHT22;9172;49.948;9.208;2023-04-27T14:01:08;17.00;93.60
18091;DHT22;9172;49.948;9.208;2023-04-27T14:03:58;17.10;93.40
18091;DHT22;9172;49.948;9.208;2023-04-27T14:06:32;17.10;92.90
18091;DHT22;9172;49.948;9.208;2023-04-27T14:09:01;17.10;93.40
18091;DHT22;9172;49.948;9.208;2023-04-27T14:11:31;17.00;92.30
18091;DHT22;9172;49.948;9.208;2023-04-27T14:14:01;17.00;93.70
18091;DHT22;9172;49.948;9.208;2023-04-27T14:16:30;17.10;93.30
18091;DHT22;9172;49.948;9.208;2023-04-27T14:19:17;17.10;93.50
18091;DHT22;9172;49.948;9.208;2023-04-27T14:21:46;17.10;94.20
18091;DHT22;9172;49.948;9.208;2023-04-27T14:24:17;17.20;92.50
18091;DHT22;9172;49.948;9.208;2023-04-27T14:26:46;17.10;93.00
18091;DHT22;9172;49.948;9.208;2023-04-27T14:29:15;17.10;93.70
18091;DHT22;9172;49.948;9.208;2023-04-27T14:31:44;16.90;93.10
18091;DHT22;9172;49.948;9.208;2023-04-27T14:34:13;16.90;92.90
18091;DHT22;9172;49.948;9.208;2023-04-27T14:36:42;16.70;92.70
18091;DHT22;9172;49.948;9.208;2023-04-27T14:39:11;16.70;93.40
18091;DHT22;9172;49.948;9.208;2023-04-27T14:41:40;16.70;94.00
18091;DHT22;9172;49.948;9.208;2023-04-27T14:44:11;16.80;93.80
18091;DHT22;9172;49.948;9.208;2023-04-27T14:46:41;16.80;93.30
18091;DHT22;9172;49.948;9.208;2023-04-27T14:49:11;16.80;93.30
18091;DHT22;9172;49.948;9.208;2023-04-27T14:51:41;16.70;93.10
18091;DHT22;9172;49.948;9.208;2023-04-27T14:54:10;16.70;93.80
18091;DHT22;9172;49.948;9.208;2023-04-27T14:56:40;16.70;94.40
18091;DHT22;9172;49.948;9.208;2023-04-27T14:59:10;16.80;94.20
18091;DHT22;9172;49.948;9.208;2023-04-27T15:01:39;16.80;93.30
18091;DHT22;9172;49.948;9.208;2023-04-27T15:04:11;16.70;92.50
18091;DHT22;9172;49.948;9.208;2023-04-27T15:06:40;16.70;93.60
18091;DHT22;9172;49.948;9.208;2023-04-27T15:09:11;16.70;93.70
18091;DHT22;9172;49.948;9.208;2023-04-27T15:11:40;16.70;93.10
18091;DHT22;9172;49.948;9.208;2023-04-27T15:14:09;16.60;93.10
18091;DHT22;9172;49.948;9.208;2023-04-27T15:16:39;16.60;93.40
18091;DHT22;9172;49.948;9.208;2023-04-27T15:19:07;16.70;94.40
18091;DHT22;9172;49.948;9.208;2023-04-27T15:21:36;16.70;93.10
18091;DHT22;9172;49.948;9.208;2023-04-27T15:24:05;16.70;93.20
18091;DHT22;9172;49.948;9.208;2023-04-27T15:26:54;16.60;93.10
18091;DHT22;9172;49.948;9.208;2023-04-27T15:29:23;16.50;93.10
18091;DHT22;9172;49.948;9.208;2023-04-27T15:31:53;16.50;93.00
18091;DHT22;9172;49.948;9.208;2023-04-27T15:34:22;16.50;93.10
18091;DHT22;9172;49.948;9.208;2023-04-27T15:36:51;16.50;92.70
18091;DHT22;9172;49.948;9.208;2023-04-27T15:39:22;16.40;92.80
18091;DHT22;9172;49.948;9.208;2023-04-27T15:41:51;16.40;93.70
18091;DHT22;9172;49.948;9.208;2023-04-27T15:44:20;16.40;93.90
18091;DHT22;9172;49.948;9.208;2023-04-27T15:46:50;16.50;93.70
18091;DHT22;9172;49.948;9.208;2023-04-27T15:49:18;16.50;93.80
18091;DHT22;9172;49.948;9.208;2023-04-27T15:51:47;16.50;93.60
18091;DHT22;9172;49.948;9.208;2023-04-27T15:54:16;16.50;93.90
18091;DHT22;9172;49.948;9.208;2023-04-27T15:56:46;16.40;93.40
18091;DHT22;9172;49.948;9.208;2023-04-27T15:59:18;16.40;94.00
18091;DHT22;9172;49.948;9.208;2023-04-27T16:01:46;16.40;94.50
18091;DHT22;9172;49.948;9.208;2023-04-27T16:04:15;16.40;94.50
18091;DHT22;9172;49.948;9.208;2023-04-27T16:06:44;16.30;93.50
18091;DHT22;9172;49.948;9.208;2023-04-27T16:09:13;16.30;93.70
18091;DHT22;9172;49.948;9.208;2023-04-27T16:11:43;16.30;94.10
18091;DHT22;9172;49.948;9.208;2023-04-27T16:14:12;16.30;93.30
18091;DHT22;9172;49.948;9.208;2023-04-27T16:16:41;16.30;93.70
18091;DHT22;9172;49.948;9.208;2023-04-27T16:19:11;16.30;94.70
18091;DHT22;9172;49.948;9.208;2023-04-27T16:21:41;16.40;94.20